Time;durP1;ratioP1;P1;durP2;ratioP2;P2;SDS_P1;SDS_P2;PMS_P1;PMS_P2;Temp;Humidity;BMP_temperature;BMP_pressure;BME280_temperature;BME280_humidity;BME280_pressure;Samples;Min_cycle;Max_cycle;Signal;HPM_P1;HPM_P2
2022/09/30 00:01:46;;;;;;;4.60;3.25;;;11.90;99.90;;;;;;5032895;28;20053;-69
2022/09/30 00:04:18;;;;;;;10.88;3.13;;;11.80;99.90;;;;;;5032985;28;20041;-70
2022/09/30 00:06:45;;;;;;;6.63;3.03;;;11.80;99.90;;;;;;5033673;28;20029;-69
2022/09/30 00:09:11;;;;;;;5.43;3.42;;;11.70;99.90;;;;;;5068521;28;20044;-69
2022/09/30 00:11:39;;;;;;;4.22;3.00;;;11.80;99.90;;;;;;5051541;28;20036;-69
2022/09/30 00:14:05;;;;;;;3.72;3.05;;;11.80;99.90;;;;;;5052409;28;20135;-69
2022/09/30 00:16:33;;;;;;;4.40;3.25;;;11.70;99.90;;;;;;5052441;28;20363;-70
2022/09/30 00:18:59;;;;;;;6.93;3.20;;;11.80;99.90;;;;;;5052527;28;20028;-69
2022/09/30 00:21:29;;;;;;;5.00;2.90;;;11.70;99.90;;;;;;5053458;28;20090;-69
2022/09/30 00:23:55;;;;;;;6.88;3.58;;;11.70;99.90;;;;;;5052106;28;20367;-69
2022/09/30 00:26:22;;;;;;;6.40;3.60;;;11.70;99.90;;;;;;5052143;28;20040;-69
2022/09/30 00:28:50;;;;;;;4.97;2.90;;;11.70;99.90;;;;;;5052119;28;20025;-69
2022/09/30 00:31:18;;;;;;;10.20;3.42;;;11.70;99.90;;;;;;5052097;28;20025;-70
2022/09/30 00:34:05;;;;;;;8.32;3.65;;;11.70;99.90;;;;;;5052546;28;20029;-69
2022/09/30 00:36:35;;;;;;;6.60;3.25;;;11.70;99.90;;;;;;5052204;28;20106;-70
2022/09/30 00:39:01;;;;;;;8.70;4.53;;;11.60;99.90;;;;;;5050856;28;20171;-70
2022/09/30 00:41:27;;;;;;;7.53;3.63;;;11.50;99.90;;;;;;5052128;28;20029;-70
2022/09/30 00:43:53;;;;;;;6.97;3.65;;;11.50;99.90;;;;;;5052099;28;20126;-70
2022/09/30 00:46:28;;;;;;;7.63;3.33;;;11.50;99.90;;;;;;5052030;28;20021;-70
2022/09/30 00:48:57;;;;;;;5.95;3.28;;;11.40;99.90;;;;;;5051935;28;20094;-69
2022/09/30 00:51:31;;;;;;;5.57;3.50;;;11.40;99.90;;;;;;5051247;28;20036;-69
2022/09/30 00:54:06;;;;;;;7.72;3.90;;;11.40;99.90;;;;;;5051831;28;20044;-68
2022/09/30 00:56:37;;;;;;;9.10;4.63;;;11.30;99.90;;;;;;5051631;28;20481;-69
2022/09/30 00:59:32;;;;;;;9.45;4.35;;;11.30;99.90;;;;;;5051629;28;20175;-70
2022/09/30 01:01:58;;;;;;;7.85;4.60;;;11.20;99.90;;;;;;5050782;28;20036;-69
2022/09/30 01:04:25;;;;;;;6.05;4.10;;;11.20;99.90;;;;;;5051524;28;20025;-69
2022/09/30 01:06:52;;;;;;;7.28;4.22;;;11.20;99.90;;;;;;5051491;28;20036;-69
2022/09/30 01:09:18;;;;;;;8.00;4.32;;;11.20;99.90;;;;;;5052116;28;20025;-69
2022/09/30 01:11:45;;;;;;;6.55;3.90;;;11.10;99.90;;;;;;5051358;28;20114;-69
2022/09/30 01:14:20;;;;;;;4.80;4.05;;;11.10;99.90;;;;;;5051199;28;20128;-69
2022/09/30 01:16:55;;;;;;;6.03;4.28;;;11.10;99.90;;;;;;5051468;28;20025;-69
2022/09/30 01:19:58;;;;;;;7.82;4.68;;;11.00;99.90;;;;;;5051305;28;20040;-69
2022/09/30 01:22:33;;;;;;;6.30;4.35;;;10.90;99.90;;;;;;5051416;28;20033;-70
2022/09/30 01:25:26;;;;;;;5.95;4.43;;;10.90;99.90;;;;;;5051300;28;20105;-69
2022/09/30 01:28:13;;;;;;;6.07;4.35;;;10.90;99.90;;;;;;5051524;28;20109;-69
2022/09/30 01:30:39;;;;;;;6.68;4.78;;;10.80;99.90;;;;;;5051636;28;20205;-69
2022/09/30 01:33:24;;;;;;;12.02;5.13;;;10.90;99.90;;;;;;5051133;28;20041;-68
2022/09/30 01:36:11;;;;;;;18.60;5.65;;;10.90;99.90;;;;;;5042601;28;20279;-68
2022/09/30 01:39:05;;;;;;;6.70;4.90;;;10.90;99.90;;;;;;5030972;28;20371;-69
2022/09/30 01:41:53;;;;;;;8.23;4.95;;;10.80;99.90;;;;;;5031235;28;20033;-70
2022/09/30 01:44:31;;;;;;;5.80;4.50;;;10.80;99.90;;;;;;5029950;28;20459;-69
2022/09/30 01:47:13;;;;;;;5.97;4.38;;;10.70;99.90;;;;;;5031188;28;20026;-70
2022/09/30 01:49:46;;;;;;;6.88;4.75;;;10.80;99.90;;;;;;5030940;28;20021;-68
2022/09/30 01:52:22;;;;;;;8.10;4.90;;;10.70;99.90;;;;;;5030693;28;20029;-70
2022/09/30 01:55:00;;;;;;;6.78;4.93;;;10.60;99.90;;;;;;5031211;28;20017;-69
2022/09/30 01:57:50;;;;;;;7.43;4.65;;;10.60;99.90;;;;;;5031192;28;20407;-70
2022/09/30 02:00:17;;;;;;;8.95;5.20;;;10.60;99.90;;;;;;5030467;28;20095;-69
2022/09/30 02:02:52;;;;;;;6.70;4.97;;;10.60;99.90;;;;;;5030690;28;20063;-70
2022/09/30 02:05:25;;;;;;;10.23;5.35;;;10.60;99.90;;;;;;5030735;28;20068;-68
2022/09/30 02:07:56;;;;;;;10.18;5.68;;;10.50;99.90;;;;;;5030689;28;20030;-69
2022/09/30 02:10:38;;;;;;;10.07;5.47;;;10.50;99.90;;;;;;5030034;28;20409;-68
2022/09/30 02:13:37;;;;;;;7.63;6.05;;;10.40;99.90;;;;;;5030546;28;20188;-69
2022/09/30 02:16:11;;;;;;;8.02;5.78;;;10.40;99.90;;;;;;4991350;28;20042;-68
2022/09/30 02:19:10;;;;;;;8.80;5.82;;;10.40;99.90;;;;;;4991659;28;20037;-68
2022/09/30 02:21:39;;;;;;;10.25;6.10;;;10.40;99.90;;;;;;4971808;28;20381;-69
2022/09/30 02:24:10;;;;;;;7.40;6.00;;;10.30;99.90;;;;;;4990315;28;20040;-70
2022/09/30 02:26:39;;;;;;;10.38;5.78;;;10.20;99.90;;;;;;4991105;28;20034;-70
2022/09/30 02:29:12;;;;;;;10.73;6.50;;;10.20;99.90;;;;;;4991098;28;20397;-70
2022/09/30 02:31:41;;;;;;;7.90;6.18;;;10.10;99.90;;;;;;4991431;28;20105;-70
2022/09/30 02:34:35;;;;;;;7.85;5.97;;;10.10;99.90;;;;;;4991203;28;20038;-69
2022/09/30 02:37:23;;;;;;;10.38;6.28;;;10.10;99.90;;;;;;4990611;28;20097;-68
2022/09/30 02:40:09;;;;;;;9.75;6.65;;;10.10;99.90;;;;;;4990879;28;20025;-69
2022/09/30 02:42:36;;;;;;;7.55;5.68;;;10.10;99.90;;;;;;4991874;28;20034;-69
2022/09/30 02:45:07;;;;;;;7.35;5.80;;;10.00;99.90;;;;;;4990987;28;20040;-69
2022/09/30 02:47:38;;;;;;;9.70;6.60;;;10.00;99.90;;;;;;4990958;28;20027;-70
2022/09/30 02:50:31;;;;;;;7.40;5.90;;;10.00;99.90;;;;;;5022545;28;20031;-69
2022/09/30 02:53:34;;;;;;;9.15;6.75;;;10.00;99.90;;;;;;4990066;28;20393;-69
2022/09/30 02:56:06;;;;;;;8.60;6.57;;;9.90;99.90;;;;;;4990721;28;20073;-69
2022/09/30 02:58:33;;;;;;;11.45;6.28;;;10.00;99.90;;;;;;5022493;28;20065;-69
2022/09/30 03:00:59;;;;;;;9.77;6.50;;;9.90;99.90;;;;;;4990624;28;20018;-70
2022/09/30 03:03:27;;;;;;;11.52;7.22;;;9.90;99.90;;;;;;4990992;28;20112;-71
2022/09/30 03:05:53;;;;;;;;;;;9.90;99.90;;;;;;4991229;28;20035;-70
2022/09/30 03:08:19;;;;;;;12.88;6.57;;;9.90;99.90;;;;;;4990631;28;19933;-70
2022/09/30 03:10:49;;;;;;;10.50;6.60;;;9.80;99.90;;;;;;5005824;28;20035;-69
2022/09/30 03:13:34;;;;;;;10.32;7.07;;;9.80;99.90;;;;;;4990933;28;20330;-69
2022/09/30 03:16:14;;;;;;;9.32;7.22;;;9.70;99.90;;;;;;5029755;28;20091;-69
2022/09/30 03:19:07;;;;;;;10.20;6.43;;;9.80;99.90;;;;;;5029289;28;20040;-69
2022/09/30 03:22:04;;;;;;;8.32;5.80;;;9.70;99.90;;;;;;5013552;28;20092;-69
2022/09/30 03:24:53;;;;;;;11.52;6.70;;;9.70;99.90;;;;;;5032505;28;20036;-69
2022/09/30 03:27:31;;;;;;;12.30;6.53;;;9.70;99.90;;;;;;5033670;28;20403;-70
2022/09/30 03:30:17;;;;;;;8.45;6.38;;;9.70;99.90;;;;;;5049075;28;20087;-70
2022/09/30 03:33:09;;;;;;;10.68;7.10;;;9.60;99.90;;;;;;5033362;28;20385;-70
2022/09/30 03:35:49;;;;;;;10.45;7.05;;;9.60;99.90;;;;;;5033409;28;20490;-69
2022/09/30 03:38:38;;;;;;;11.32;7.05;;;9.60;99.90;;;;;;5033438;28;20102;-70
2022/09/30 03:41:20;;;;;;;13.00;6.72;;;9.70;99.90;;;;;;5033300;28;20033;-70
2022/09/30 03:44:11;;;;;;;11.27;7.90;;;9.60;99.90;;;;;;5033434;28;20022;-70
2022/09/30 03:47:06;;;;;;;10.95;7.30;;;9.60;99.90;;;;;;5033190;28;20363;-70
2022/09/30 03:49:41;;;;;;;11.35;7.45;;;9.60;99.90;;;;;;5030180;28;20451;-69
2022/09/30 03:52:10;;;;;;;16.55;6.95;;;9.50;99.90;;;;;;5033108;28;20132;-71
2022/09/30 03:54:55;;;;;;;10.48;6.80;;;9.60;99.90;;;;;;5048779;28;20030;-69
2022/09/30 03:57:21;;;;;;;9.63;7.40;;;9.60;99.90;;;;;;5033268;28;20041;-70
2022/09/30 03:59:47;;;;;;;8.45;6.85;;;9.60;99.90;;;;;;5033038;28;20026;-70
2022/09/30 04:02:12;;;;;;;9.77;6.78;;;9.60;99.90;;;;;;5031740;28;20033;-70
2022/09/30 04:04:41;;;;;;;19.38;7.25;;;9.50;99.90;;;;;;5048557;28;20025;-70
2022/09/30 04:07:09;;;;;;;21.52;7.20;;;9.50;99.90;;;;;;5032738;28;20490;-70
2022/09/30 04:09:35;;;;;;;9.00;6.35;;;9.60;99.90;;;;;;5033323;28;20017;-70
2022/09/30 04:12:01;;;;;;;10.80;6.68;;;9.50;99.90;;;;;;5032949;28;20041;-70
2022/09/30 04:14:27;;;;;;;10.38;6.30;;;9.50;99.90;;;;;;5032625;28;20041;-69
2022/09/30 04:16:53;;;;;;;9.63;6.82;;;9.60;99.90;;;;;;5032844;28;20041;-69
2022/09/30 04:19:18;;;;;;;9.90;6.53;;;9.50;99.90;;;;;;5048253;28;20048;-69
2022/09/30 04:21:44;;;;;;;9.70;6.35;;;9.50;99.90;;;;;;5031809;28;20040;-70
2022/09/30 04:24:09;;;;;;;9.52;6.72;;;9.50;99.90;;;;;;5032572;28;20452;-70
2022/09/30 04:26:35;;;;;;;10.57;6.93;;;9.40;99.90;;;;;;5032362;28;20453;-71
2022/09/30 04:29:01;;;;;;;10.00;6.55;;;9.40;99.90;;;;;;5032195;28;20030;-70
2022/09/30 04:31:26;;;;;;;11.43;6.32;;;9.50;99.90;;;;;;5031839;28;20025;-69
2022/09/30 04:33:52;;;;;;;10.15;6.82;;;9.40;99.90;;;;;;5031964;28;20025;-69
2022/09/30 04:36:18;;;;;;;11.65;7.05;;;9.40;99.90;;;;;;5033117;28;20339;-69
2022/09/30 04:38:43;;;;;;;12.32;7.43;;;9.40;99.90;;;;;;5032074;28;20087;-71
2022/09/30 04:41:17;;;;;;;13.18;7.10;;;9.40;99.90;;;;;;5047517;28;20533;-70
2022/09/30 04:43:45;;;;;;;9.55;6.78;;;9.40;99.90;;;;;;5032367;28;20040;-70
2022/09/30 04:46:11;;;;;;;;;;;9.30;99.90;;;;;;5032398;28;20033;-70
2022/09/30 04:48:37;;;;;;;13.68;6.95;;;9.30;99.90;;;;;;5032628;28;19988;-70
2022/09/30 04:51:03;;;;;;;10.88;7.30;;;9.30;99.90;;;;;;5032075;28;20492;-70
2022/09/30 04:53:29;;;;;;;10.02;6.88;;;9.30;99.90;;;;;;5031801;28;20041;-70
2022/09/30 04:55:59;;;;;;;10.10;7.80;;;9.40;99.90;;;;;;5031911;28;20045;-70
2022/09/30 04:58:25;;;;;;;11.55;8.02;;;9.30;99.90;;;;;;5031981;28;20091;-71
2022/09/30 05:00:51;;;;;;;10.40;7.38;;;9.20;99.90;;;;;;5047035;28;20424;-71
2022/09/30 05:03:18;;;;;;;12.18;7.25;;;9.30;99.90;;;;;;5047727;28;20116;-71
2022/09/30 05:05:44;;;;;;;11.55;7.90;;;9.30;99.90;;;;;;5031716;28;20598;-70
2022/09/30 05:08:10;;;;;;;10.70;7.30;;;9.40;99.90;;;;;;5046985;28;20037;-70
2022/09/30 05:10:36;;;;;;;11.20;6.88;;;9.30;99.90;;;;;;5031592;28;20030;-70
2022/09/30 05:13:01;;;;;;;11.52;7.70;;;9.30;99.90;;;;;;5031535;28;20033;-70
2022/09/30 05:15:27;;;;;;;14.43;7.80;;;9.30;99.90;;;;;;5032337;28;20049;-70
2022/09/30 05:17:53;;;;;;;10.23;7.63;;;9.30;99.90;;;;;;5031598;28;20041;-70
2022/09/30 05:20:19;;;;;;;10.35;7.35;;;9.30;99.90;;;;;;5031336;28;20029;-70
2022/09/30 05:22:44;;;;;;;12.93;7.70;;;9.20;99.90;;;;;;5031507;28;20042;-70
2022/09/30 05:25:10;;;;;;;8.63;6.80;;;9.20;99.90;;;;;;5030920;28;20034;-70
2022/09/30 05:27:35;;;;;;;13.15;6.90;;;9.20;99.90;;;;;;5031959;28;20109;-71
2022/09/30 05:30:01;;;;;;;11.85;7.40;;;9.20;99.90;;;;;;5031436;28;20363;-71
2022/09/30 05:32:27;;;;;;;9.75;7.13;;;9.20;99.90;;;;;;5031494;28;20037;-71
2022/09/30 05:34:54;;;;;;;15.10;7.43;;;9.10;99.90;;;;;;5031553;28;20249;-70
2022/09/30 05:37:20;;;;;;;12.52;8.18;;;9.10;99.90;;;;;;5031277;28;20242;-71
2022/09/30 05:39:46;;;;;;;11.40;7.40;;;9.10;99.90;;;;;;5031196;28;20029;-69
2022/09/30 05:42:11;;;;;;;11.80;7.55;;;9.20;99.90;;;;;;5031626;28;20355;-70
2022/09/30 05:44:37;;;;;;;15.68;8.32;;;9.10;99.90;;;;;;5045708;28;20442;-71
2022/09/30 05:47:04;;;;;;;11.05;8.13;;;9.20;99.90;;;;;;5031137;28;20083;-70
2022/09/30 05:49:30;;;;;;;11.60;7.88;;;9.20;99.90;;;;;;5038067;28;20033;-71
2022/09/30 05:51:55;;;;;;;13.88;7.88;;;9.20;99.90;;;;;;5051019;28;20087;-71
2022/09/30 05:54:21;;;;;;;14.75;8.32;;;9.20;99.90;;;;;;5051388;28;20043;-72
2022/09/30 05:56:47;;;;;;;13.20;8.20;;;9.20;99.90;;;;;;5050885;28;20106;-69
2022/09/30 05:59:12;;;;;;;12.43;9.02;;;9.30;99.90;;;;;;5049767;28;20039;-69
2022/09/30 06:01:38;;;;;;;12.50;8.32;;;9.30;99.90;;;;;;5050625;28;20028;-71
2022/09/30 06:04:04;;;;;;;13.13;8.85;;;9.30;99.90;;;;;;5051002;28;20028;-70
2022/09/30 06:06:30;;;;;;;12.55;8.70;;;9.30;99.90;;;;;;5049332;28;20029;-72
2022/09/30 06:08:55;;;;;;;13.80;8.85;;;9.30;99.90;;;;;;5049018;28;20386;-73
2022/09/30 06:11:23;;;;;;;13.18;8.77;;;9.40;99.90;;;;;;5049356;28;20194;-73
2022/09/30 06:13:50;;;;;;;21.48;10.18;;;9.40;99.90;;;;;;5048744;28;20072;-73
2022/09/30 06:16:17;;;;;;;17.02;9.15;;;9.40;99.90;;;;;;5050244;28;20037;-73
2022/09/30 06:18:43;;;;;;;18.10;8.95;;;9.40;99.90;;;;;;5049583;28;20021;-73
2022/09/30 06:21:11;;;;;;;11.18;8.05;;;9.50;99.90;;;;;;5050251;28;20037;-72
2022/09/30 06:23:37;;;;;;;11.73;8.73;;;9.50;99.90;;;;;;5050212;28;20112;-74
2022/09/30 06:26:05;;;;;;;14.45;8.05;;;9.60;99.90;;;;;;5050379;28;20037;-73
2022/09/30 06:28:34;;;;;;;;;;;9.50;99.90;;;;;;5049210;28;20040;-72
2022/09/30 06:31:03;;;;;;;11.27;8.35;;;9.60;99.90;;;;;;5049057;28;20263;-72
2022/09/30 06:33:29;;;;;;;13.82;9.38;;;9.60;99.90;;;;;;5050600;28;20055;-73
2022/09/30 06:35:55;;;;;;;13.57;8.55;;;9.70;99.90;;;;;;5049107;28;20057;-72
2022/09/30 06:38:22;;;;;;;13.50;9.02;;;9.70;99.90;;;;;;5048910;28;20458;-72
2022/09/30 06:40:49;;;;;;;16.38;9.05;;;9.70;99.90;;;;;;5049813;28;20323;-73
2022/09/30 06:43:16;;;;;;;17.03;8.87;;;9.80;99.90;;;;;;5050268;28;20029;-70
2022/09/30 06:45:48;;;;;;;11.85;8.20;;;9.80;99.90;;;;;;5050307;28;20028;-72
2022/09/30 06:48:15;;;;;;;13.85;8.60;;;9.80;99.90;;;;;;5082422;28;20420;-73
2022/09/30 06:50:41;;;;;;;12.65;8.70;;;9.80;99.90;;;;;;5050208;28;20348;-73
2022/09/30 06:53:07;;;;;;;14.38;8.93;;;9.90;99.90;;;;;;5048723;28;20044;-74
2022/09/30 06:55:38;;;;;;;19.17;8.90;;;9.90;99.90;;;;;;5050339;28;20108;-71
2022/09/30 06:58:07;;;;;;;13.57;9.48;;;10.00;99.90;;;;;;5054024;28;20074;-70
2022/09/30 07:00:33;;;;;;;13.50;9.10;;;10.00;99.90;;;;;;5054688;28;20025;-70
2022/09/30 07:02:59;;;;;;;13.38;9.02;;;10.00;99.90;;;;;;5054031;28;20060;-69
2022/09/30 07:05:25;;;;;;;15.07;9.85;;;10.10;99.90;;;;;;5053951;28;20129;-72
2022/09/30 07:07:52;;;;;;;14.60;9.73;;;10.10;99.90;;;;;;5053961;28;20134;-71
2022/09/30 07:10:18;;;;;;;14.48;9.43;;;10.20;99.90;;;;;;5085986;28;20028;-70
2022/09/30 07:12:47;;;;;;;19.92;9.50;;;10.30;99.90;;;;;;5054013;28;20028;-70
2022/09/30 07:15:13;;;;;;;16.98;9.75;;;10.30;99.90;;;;;;5052148;28;20182;-71
2022/09/30 07:17:39;;;;;;;13.02;9.05;;;10.40;99.90;;;;;;5053678;28;20104;-71
2022/09/30 07:20:05;;;;;;;11.27;8.63;;;10.50;99.90;;;;;;5053705;28;20044;-70
2022/09/30 07:22:31;;;;;;;13.35;8.85;;;10.50;99.90;;;;;;5053650;28;20044;-71
2022/09/30 07:24:57;;;;;;;17.67;9.77;;;10.50;99.90;;;;;;5053176;28;20032;-70
2022/09/30 07:27:28;;;;;;;13.60;8.93;;;10.60;99.90;;;;;;5053555;28;20436;-70
2022/09/30 07:29:53;;;;;;;18.35;9.93;;;10.70;99.90;;;;;;5053337;28;20033;-71
2022/09/30 07:32:22;;;;;;;13.82;8.65;;;10.80;99.90;;;;;;5053342;28;20369;-72
2022/09/30 07:34:48;;;;;;;16.45;9.35;;;10.80;99.90;;;;;;5053280;28;20105;-71
2022/09/30 07:37:16;;;;;;;14.55;9.45;;;11.00;99.90;;;;;;5053159;28;20421;-71
2022/09/30 07:39:43;;;;;;;13.40;8.55;;;11.00;99.90;;;;;;5052486;28;20031;-72
2022/09/30 07:42:10;;;;;;;12.48;9.18;;;11.10;99.90;;;;;;5052950;28;20422;-72
2022/09/30 07:44:40;;;;;;;14.48;8.50;;;11.20;99.90;;;;;;5052987;28;20095;-71
2022/09/30 07:47:08;;;;;;;13.60;8.55;;;11.20;99.90;;;;;;5053007;28;20036;-72
2022/09/30 07:49:34;;;;;;;16.50;9.20;;;11.30;99.90;;;;;;5051865;28;20025;-72
2022/09/30 07:52:01;;;;;;;11.98;8.60;;;11.40;99.90;;;;;;5051886;28;20033;-72
2022/09/30 07:54:29;;;;;;;16.02;9.40;;;11.50;99.90;;;;;;5053445;28;20367;-72
2022/09/30 07:56:56;;;;;;;18.50;9.20;;;11.50;99.90;;;;;;5052730;28;20036;-73
2022/09/30 07:59:22;;;;;;;11.15;8.35;;;11.60;99.90;;;;;;5052673;28;20043;-71
2022/09/30 08:01:49;;;;;;;15.90;8.98;;;11.80;99.90;;;;;;5052704;28;20370;-71
2022/09/30 08:04:16;;;;;;;13.93;8.33;;;11.80;99.90;;;;;;5052871;28;20041;-73
2022/09/30 08:06:46;;;;;;;12.45;8.25;;;11.90;99.90;;;;;;5051198;28;20052;-72
2022/09/30 08:09:14;;;;;;;11.65;8.23;;;12.00;99.90;;;;;;5051638;28;20045;-71
2022/09/30 08:11:41;;;;;;;11.38;8.63;;;12.00;99.90;;;;;;5052545;28;20025;-71
2022/09/30 08:14:11;;;;;;;14.18;9.02;;;12.10;99.90;;;;;;5052688;28;20060;-70
2022/09/30 08:16:37;;;;;;;14.70;8.55;;;12.20;99.90;;;;;;5052248;28;20127;-71
2022/09/30 08:19:03;;;;;;;15.13;7.95;;;12.20;99.60;;;;;;5052336;28;20167;-71
2022/09/30 08:21:29;;;;;;;13.13;8.38;;;12.30;99.60;;;;;;5052721;28;20486;-70
2022/09/30 08:23:56;;;;;;;9.63;7.78;;;12.40;99.40;;;;;;5051129;28;20086;-70
2022/09/30 08:26:22;;;;;;;17.60;9.18;;;12.50;99.10;;;;;;5051077;28;20048;-70
2022/09/30 08:28:47;;;;;;;15.15;8.30;;;12.60;99.20;;;;;;5052229;28;20400;-71
2022/09/30 08:31:19;;;;;;;13.57;8.30;;;12.60;99.20;;;;;;5050780;28;20063;-71
2022/09/30 08:33:45;;;;;;;15.68;8.38;;;12.70;99.10;;;;;;5052711;28;20086;-70
2022/09/30 08:36:14;;;;;;;12.30;8.32;;;12.80;98.70;;;;;;5052337;28;20044;-70
2022/09/30 08:38:40;;;;;;;14.52;8.52;;;12.90;98.80;;;;;;5051828;28;20194;-70
2022/09/30 08:41:26;;;;;;;14.60;8.52;;;13.10;98.90;;;;;;5052021;28;20131;-70
2022/09/30 08:44:20;;;;;;;13.88;7.90;;;13.20;98.90;;;;;;5051908;28;20486;-70
2022/09/30 08:46:56;;;;;;;12.65;8.48;;;13.40;98.70;;;;;;5051765;28;20036;-70
2022/09/30 08:50:17;;;;;;;11.63;9.15;;;13.80;99.10;;;;;;5051822;28;20116;-71
2022/09/30 08:52:48;;;;;;;15.35;9.10;;;14.60;99.60;;;;;;5034470;28;20463;-70
2022/09/30 08:55:28;;;;;;;9.18;6.45;;;15.50;99.10;;;;;;5051702;28;20036;-72
2022/09/30 08:57:55;;;;;;;11.27;7.45;;;16.30;97.40;;;;;;5051528;28;20028;-70
2022/09/30 09:00:22;;;;;;;9.68;6.82;;;17.10;97.20;;;;;;5051973;28;20021;-72
2022/09/30 09:02:53;;;;;;;11.10;7.28;;;17.70;97.10;;;;;;5050815;28;20033;-71
2022/09/30 09:05:52;;;;;;;10.25;6.47;;;18.60;96.50;;;;;;5051382;28;20050;-72
2022/09/30 09:08:24;;;;;;;11.10;6.22;;;19.40;94.10;;;;;;5051647;28;20040;-70
2022/09/30 09:11:26;;;;;;;9.02;5.80;;;20.20;93.50;;;;;;5051862;28;20094;-71
2022/09/30 09:14:05;;;;;;;10.63;5.55;;;20.90;90.70;;;;;;5051370;28;20331;-71
2022/09/30 09:16:43;;;;;;;7.00;5.43;;;22.10;90.90;;;;;;5051333;28;20116;-71
2022/09/30 09:19:18;;;;;;;7.40;5.18;;;22.70;88.20;;;;;;5051127;28;20029;-70
2022/09/30 09:21:52;;;;;;;7.53;5.28;;;23.40;84.90;;;;;;5051683;28;20025;-71
2022/09/30 09:24:46;;;;;;;6.38;4.97;;;23.90;85.60;;;;;;5051182;28;20388;-72
2022/09/30 09:27:33;;;;;;;10.32;5.55;;;24.60;82.50;;;;;;5030140;28;20432;-71
2022/09/30 09:30:06;;;;;;;7.93;4.88;;;24.90;77.90;;;;;;5031042;28;20472;-72
2022/09/30 09:32:32;;;;;;;10.00;5.45;;;24.90;75.90;;;;;;5031163;28;20525;-71
2022/09/30 09:35:05;;;;;;;12.15;7.45;;;25.60;73.80;;;;;;5031097;28;20074;-72
2022/09/30 09:40:41;;;;;;;8.77;4.97;;;26.40;74.60;;;;;;5031380;28;20064;-71
2022/09/30 09:43:36;;;;;;;7.03;4.57;;;26.90;68.60;;;;;;5031009;28;20152;-72
2022/09/30 09:46:21;;;;;;;7.70;4.20;;;27.40;65.90;;;;;;5022947;28;20049;-72
2022/09/30 09:48:48;;;;;;;6.20;4.18;;;27.40;69.60;;;;;;5030690;28;20026;-72
2022/09/30 09:51:33;;;;;;;7.28;4.60;;;27.70;65.30;;;;;;5063412;28;20099;-72
2022/09/30 09:54:02;;;;;;;9.98;4.30;;;28.20;64.60;;;;;;5030689;28;20033;-73
2022/09/30 09:56:32;;;;;;;6.57;3.88;;;28.40;66.00;;;;;;5030443;28;20575;-71
2022/09/30 09:59:15;;;;;;;8.80;4.18;;;28.70;60.50;;;;;;5030514;28;20115;-73
2022/09/30 10:01:50;;;;;;;9.52;4.07;;;29.10;59.20;;;;;;5030727;28;20555;-71
2022/09/30 10:04:31;;;;;;;7.35;4.15;;;29.70;58.10;;;;;;5030865;28;20034;-71
2022/09/30 10:07:11;;;;;;;7.53;3.80;;;30.00;57.10;;;;;;5030605;28;20582;-72
2022/09/30 10:09:41;;;;;;;8.98;4.32;;;29.70;56.00;;;;;;5046531;28;20033;-72
2022/09/30 10:12:07;;;;;;;9.88;4.93;;;29.50;55.60;;;;;;5029252;28;20391;-70
2022/09/30 10:14:52;;;;;;;6.22;4.38;;;30.00;53.80;;;;;;5030459;28;20202;-70
2022/09/30 10:17:25;;;;;;;7.40;4.50;;;29.90;51.70;;;;;;5030829;28;20059;-70
2022/09/30 10:19:53;;;;;;;9.50;5.88;;;29.60;51.40;;;;;;5030649;28;20052;-69
2022/09/30 10:22:26;;;;;;;12.00;5.68;;;29.90;52.10;;;;;;5030502;28;20073;-72
2022/09/30 10:25:13;;;;;;;7.50;4.72;;;30.20;53.10;;;;;;5046419;28;20113;-76
2022/09/30 10:27:53;;;;;;;;;;;30.20;50.40;;;;;;5030167;28;20337;-71
2022/09/30 10:30:32;;;;;;;7.85;4.30;;;30.10;51.20;;;;;;5029683;28;19936;-70
2022/09/30 10:33:02;;;;;;;6.70;3.90;;;30.00;49.80;;;;;;5030217;28;20029;-77
2022/09/30 10:35:28;;;;;;;6.97;4.43;;;30.10;51.00;;;;;;5030313;28;20104;-76
2022/09/30 10:37:56;;;;;;;6.18;4.43;;;30.50;51.00;;;;;;5030563;28;20125;-73
2022/09/30 10:40:27;;;;;;;8.27;4.72;;;30.40;47.40;;;;;;5030126;28;20037;-73
2022/09/30 10:42:53;;;;;;;8.93;4.35;;;29.60;48.30;;;;;;5030295;28;20031;-76
2022/09/30 10:45:23;;;;;;;7.95;4.10;;;29.90;48.90;;;;;;5030803;28;20021;-74
2022/09/30 10:47:52;;;;;;;8.38;4.43;;;30.20;51.80;;;;;;5030210;28;20025;-74
2022/09/30 10:50:24;;;;;;;5.63;4.00;;;30.20;48.60;;;;;;5030163;28;20363;-72
2022/09/30 10:52:55;;;;;;;7.80;4.63;;;29.60;48.50;;;;;;5030437;28;20061;-73
2022/09/30 10:55:20;;;;;;;7.60;5.15;;;29.50;49.10;;;;;;5029356;28;20519;-73
2022/09/30 10:57:48;;;;;;;5.55;3.97;;;29.30;47.20;;;;;;5030227;28;20108;-73
2022/09/30 11:00:20;;;;;;;;;;;29.50;48.40;;;;;;5030807;28;20089;-73
2022/09/30 11:03:00;;;;;;;9.02;4.28;;;30.10;46.60;;;;;;5029888;28;19921;-73
2022/09/30 11:05:33;;;;;;;7.85;4.93;;;30.30;49.80;;;;;;5030458;28;20121;-73
2022/09/30 11:08:05;;;;;;;10.75;4.50;;;29.70;44.60;;;;;;5029989;28;20462;-71
2022/09/30 11:11:02;;;;;;;14.85;6.15;;;29.50;46.50;;;;;;5029708;28;20038;-72
2022/09/30 11:13:42;;;;;;;9.05;4.30;;;28.90;45.40;;;;;;5030179;28;20057;-72
2022/09/30 11:16:08;;;;;;;8.15;4.20;;;28.70;46.80;;;;;;5030099;28;20034;-72
2022/09/30 11:18:36;;;;;;;9.60;4.18;;;28.90;45.60;;;;;;5030395;28;20033;-72
2022/09/30 11:21:27;;;;;;;7.97;4.35;;;28.10;45.20;;;;;;5028874;28;20033;-73
2022/09/30 11:24:19;;;;;;;8.95;4.47;;;28.40;46.10;;;;;;5029949;28;20029;-70
2022/09/30 11:26:50;;;;;;;5.32;4.63;;;28.30;47.50;;;;;;5028426;28;20029;-71
2022/09/30 11:29:34;;;;;;;9.18;4.40;;;28.00;47.50;;;;;;5029701;28;20057;-71
2022/09/30 11:32:22;;;;;;;13.05;4.25;;;28.30;46.80;;;;;;5029550;28;20045;-72
2022/09/30 11:34:50;;;;;;;;;;;28.00;47.00;;;;;;5029116;28;20516;-73
2022/09/30 11:37:19;;;;;;;10.25;4.53;;;27.50;47.90;;;;;;5029416;28;20013;-73
2022/09/30 11:40:10;;;;;;;8.98;4.65;;;27.00;47.80;;;;;;5030152;28;20163;-73
2022/09/30 11:42:43;;;;;;;14.43;4.97;;;25.50;49.80;;;;;;5052524;28;20083;-72
2022/09/30 11:45:24;;;;;;;7.13;4.22;;;24.30;50.80;;;;;;5052877;28;20044;-71
2022/09/30 11:48:12;;;;;;;6.50;4.63;;;24.20;51.30;;;;;;5053103;28;20075;-72
2022/09/30 11:50:47;;;;;;;9.25;3.20;;;23.70;51.50;;;;;;5052760;28;20405;-71
2022/09/30 11:53:21;;;;;;;6.40;3.75;;;23.40;52.20;;;;;;5052997;28;20033;-72
2022/09/30 11:56:27;;;;;;;7.80;3.88;;;23.10;52.60;;;;;;5053195;28;20047;-72
2022/09/30 11:58:57;;;;;;;7.28;3.70;;;22.80;52.80;;;;;;5052954;28;20067;-72
2022/09/30 12:01:36;;;;;;;6.60;3.40;;;22.70;52.50;;;;;;5052574;28;20033;-72
2022/09/30 12:04:08;;;;;;;6.28;3.45;;;22.00;52.10;;;;;;5052477;28;20025;-73
2022/09/30 12:06:59;;;;;;;6.22;4.00;;;21.70;53.40;;;;;;5053038;28;20020;-72
2022/09/30 12:09:41;;;;;;;7.10;4.28;;;21.50;53.50;;;;;;5052978;28;20048;-73
2022/09/30 12:12:12;;;;;;;7.05;3.30;;;20.90;55.00;;;;;;5051378;28;20037;-74
2022/09/30 12:14:48;;;;;;;7.85;3.20;;;21.30;54.80;;;;;;5052579;28;20295;-75
2022/09/30 12:17:25;;;;;;;7.70;3.00;;;21.30;54.70;;;;;;5051319;28;20033;-73
2022/09/30 12:19:54;;;;;;;3.88;2.78;;;21.20;55.00;;;;;;5052611;28;20336;-74
2022/09/30 12:22:23;;;;;;;5.10;3.15;;;21.20;55.00;;;;;;5051051;28;20108;-74
2022/09/30 12:24:48;;;;;;;5.20;3.05;;;21.10;55.20;;;;;;5051281;28;20032;-73
2022/09/30 12:27:27;;;;;;;4.85;3.30;;;21.00;54.40;;;;;;5051812;28;20431;-74
2022/09/30 12:30:17;;;;;;;8.23;3.97;;;21.00;54.70;;;;;;5052746;28;20037;-72
2022/09/30 12:33:01;;;;;;;4.47;3.40;;;20.90;55.00;;;;;;5052043;28;20343;-73
2022/09/30 12:35:42;;;;;;;6.32;3.63;;;20.70;54.60;;;;;;5052168;28;20086;-74
2022/09/30 12:38:32;;;;;;;18.98;7.57;;;20.60;55.70;;;;;;5052199;28;20459;-72
2022/09/30 12:41:06;;;;;;;9.00;4.90;;;20.60;56.70;;;;;;5052224;28;20493;-74
2022/09/30 12:44:02;;;;;;;7.10;4.25;;;20.10;56.90;;;;;;5051861;28;20039;-72
2022/09/30 12:46:47;;;;;;;6.40;3.40;;;20.20;57.60;;;;;;5052242;28;20347;-72
2022/09/30 12:49:18;;;;;;;9.30;4.13;;;20.10;58.20;;;;;;5052031;28;20021;-73
2022/09/30 12:51:49;;;;;;;7.28;5.35;;;20.20;58.50;;;;;;5084829;28;20088;-75
2022/09/30 12:54:40;;;;;;;6.60;4.20;;;20.00;58.30;;;;;;5050887;28;20455;-74
2022/09/30 12:57:08;;;;;;;13.05;7.70;;;20.20;58.50;;;;;;5051788;28;20089;-72
2022/09/30 12:59:37;;;;;;;15.30;3.42;;;20.10;58.50;;;;;;5051588;28;20544;-73
2022/09/30 13:02:05;;;;;;;6.47;3.92;;;20.00;58.60;;;;;;5051501;28;20033;-74
2022/09/30 13:04:35;;;;;;;7.05;4.50;;;19.80;59.20;;;;;;5051516;28;20252;-73
2022/09/30 13:07:00;;;;;;;4.00;3.30;;;19.60;59.80;;;;;;5051435;28;20078;-74
2022/09/30 13:09:32;;;;;;;6.75;3.28;;;19.70;60.20;;;;;;5051965;28;20045;-74
2022/09/30 13:11:58;;;;;;;6.25;3.15;;;19.80;59.80;;;;;;5051723;28;20031;-76
2022/09/30 13:14:36;;;;;;;7.10;2.92;;;19.70;59.80;;;;;;5051614;28;20421;-76
2022/09/30 13:17:12;;;;;;;6.18;3.33;;;19.60;59.90;;;;;;5050726;28;20036;-76
2022/09/30 13:19:39;;;;;;;5.55;2.85;;;19.50;60.80;;;;;;5049952;28;20052;-70